Terminal Aerodrome Forecast
Issued by NWS

Home | Current Version | Previous Version | Text Only | Print | Product List | Glossary Off
Versions: 1 2 3 4 5 6 7 8 9 10 11 12 13 14 15 16 17 18 19 20

000
FTUS42 KMHX 161720
TAFOAJ
TAF
KOAJ 161720Z 1618/1718 07006KT P6SM OVC015
     FM170200 VRB03KT P6SM BKN070
     FM170800 00000KT 5SM BR BKN050
     FM171200 00000KT P6SM BKN015
     FM171700 24006KT P6SM BKN130
      AMD LTD TO CLD VIS AND WIND=

USA.gov is the U.S. government's official web portal to all federal, state and local government web resources and services.